sensor_id;sensor_type;location;lat;lon;timestamp;P1;durP1;ratioP1;P2;durP2;ratioP2
5845;SDS011;2949;50.778;7.094;2023-07-24T00:00:12;2.70;;;2.50;;
5845;SDS011;2949;50.778;7.094;2023-07-24T00:02:38;2.80;;;2.60;;
5845;SDS011;2949;50.778;7.094;2023-07-24T00:05:03;5.43;;;2.60;;
5845;SDS011;2949;50.778;7.094;2023-07-24T00:07:29;2.60;;;2.40;;
5845;SDS011;2949;50.778;7.094;2023-07-24T00:09:55;2.27;;;2.07;;
5845;SDS011;2949;50.778;7.094;2023-07-24T00:12:20;3.83;;;2.27;;
5845;SDS011;2949;50.778;7.094;2023-07-24T00:14:46;3.70;;;2.90;;
5845;SDS011;2949;50.778;7.094;2023-07-24T00:17:12;5.13;;;2.40;;
5845;SDS011;2949;50.778;7.094;2023-07-24T00:19:37;2.47;;;2.23;;
5845;SDS011;2949;50.778;7.094;2023-07-24T00:22:03;9.50;;;3.03;;
5845;SDS011;2949;50.778;7.094;2023-07-24T00:24:29;4.33;;;2.30;;
5845;SDS011;2949;50.778;7.094;2023-07-24T00:26:56;2.10;;;2.00;;
5845;SDS011;2949;50.778;7.094;2023-07-24T00:29:21;3.00;;;2.60;;
5845;SDS011;2949;50.778;7.094;2023-07-24T00:31:47;2.53;;;2.33;;
5845;SDS011;2949;50.778;7.094;2023-07-24T00:34:13;3.30;;;3.00;;
5845;SDS011;2949;50.778;7.094;2023-07-24T00:36:38;3.67;;;2.60;;
5845;SDS011;2949;50.778;7.094;2023-07-24T00:39:04;3.07;;;2.70;;
5845;SDS011;2949;50.778;7.094;2023-07-24T00:41:29;4.93;;;3.23;;
5845;SDS011;2949;50.778;7.094;2023-07-24T00:43:55;2.90;;;2.70;;
5845;SDS011;2949;50.778;7.094;2023-07-24T00:46:20;6.93;;;3.10;;
5845;SDS011;2949;50.778;7.094;2023-07-24T00:48:46;3.47;;;3.10;;
5845;SDS011;2949;50.778;7.094;2023-07-24T00:51:12;5.67;;;3.00;;
5845;SDS011;2949;50.778;7.094;2023-07-24T00:53:38;5.33;;;3.23;;
5845;SDS011;2949;50.778;7.094;2023-07-24T00:56:03;2.43;;;2.23;;
5845;SDS011;2949;50.778;7.094;2023-07-24T00:58:30;2.80;;;2.57;;
5845;SDS011;2949;50.778;7.094;2023-07-24T01:00:56;2.87;;;2.67;;
5845;SDS011;2949;50.778;7.094;2023-07-24T01:03:22;3.43;;;3.10;;
5845;SDS011;2949;50.778;7.094;2023-07-24T01:05:56;6.13;;;3.17;;
5845;SDS011;2949;50.778;7.094;2023-07-24T01:08:22;22.53;;;4.20;;
5845;SDS011;2949;50.778;7.094;2023-07-24T01:10:48;5.73;;;3.03;;
5845;SDS011;2949;50.778;7.094;2023-07-24T01:13:15;3.53;;;2.97;;
5845;SDS011;2949;50.778;7.094;2023-07-24T01:15:54;2.90;;;2.70;;
5845;SDS011;2949;50.778;7.094;2023-07-24T01:18:24;5.10;;;2.73;;
5845;SDS011;2949;50.778;7.094;2023-07-24T01:20:56;3.80;;;2.80;;
5845;SDS011;2949;50.778;7.094;2023-07-24T01:26:34;4.40;;;3.00;;
5845;SDS011;2949;50.778;7.094;2023-07-24T01:29:00;3.37;;;3.07;;
5845;SDS011;2949;50.778;7.094;2023-07-24T01:31:25;3.10;;;2.77;;
5845;SDS011;2949;50.778;7.094;2023-07-24T01:33:50;6.90;;;2.97;;
5845;SDS011;2949;50.778;7.094;2023-07-24T01:36:16;2.20;;;2.00;;
5845;SDS011;2949;50.778;7.094;2023-07-24T01:38:43;3.27;;;2.97;;
5845;SDS011;2949;50.778;7.094;2023-07-24T01:41:09;3.40;;;2.90;;
5845;SDS011;2949;50.778;7.094;2023-07-24T01:43:35;3.43;;;2.57;;
5845;SDS011;2949;50.778;7.094;2023-07-24T01:46:01;2.90;;;2.60;;
5845;SDS011;2949;50.778;7.094;2023-07-24T01:48:26;4.13;;;2.80;;
5845;SDS011;2949;50.778;7.094;2023-07-24T01:50:52;4.70;;;2.60;;
5845;SDS011;2949;50.778;7.094;2023-07-24T01:53:17;4.70;;;2.63;;
5845;SDS011;2949;50.778;7.094;2023-07-24T01:55:43;6.47;;;2.50;;
5845;SDS011;2949;50.778;7.094;2023-07-24T01:58:08;5.30;;;2.83;;
5845;SDS011;2949;50.778;7.094;2023-07-24T02:00:34;2.90;;;2.50;;
5845;SDS011;2949;50.778;7.094;2023-07-24T02:02:59;2.90;;;2.30;;
5845;SDS011;2949;50.778;7.094;2023-07-24T02:05:25;3.10;;;2.47;;
5845;SDS011;2949;50.778;7.094;2023-07-24T02:07:51;3.23;;;2.60;;
5845;SDS011;2949;50.778;7.094;2023-07-24T02:10:16;2.50;;;2.30;;
5845;SDS011;2949;50.778;7.094;2023-07-24T02:12:42;9.43;;;3.57;;
5845;SDS011;2949;50.778;7.094;2023-07-24T02:15:07;4.80;;;2.33;;
5845;SDS011;2949;50.778;7.094;2023-07-24T02:17:33;3.80;;;2.53;;
5845;SDS011;2949;50.778;7.094;2023-07-24T02:19:58;2.40;;;2.00;;
5845;SDS011;2949;50.778;7.094;2023-07-24T02:22:24;3.87;;;2.23;;
5845;SDS011;2949;50.778;7.094;2023-07-24T02:24:50;2.67;;;2.47;;
5845;SDS011;2949;50.778;7.094;2023-07-24T02:27:25;4.20;;;2.33;;
5845;SDS011;2949;50.778;7.094;2023-07-24T02:29:52;3.80;;;2.60;;
5845;SDS011;2949;50.778;7.094;2023-07-24T02:32:18;5.60;;;2.77;;
5845;SDS011;2949;50.778;7.094;2023-07-24T02:34:47;3.40;;;3.10;;
5845;SDS011;2949;50.778;7.094;2023-07-24T02:37:16;5.07;;;3.00;;
5845;SDS011;2949;50.778;7.094;2023-07-24T02:39:41;7.00;;;2.90;;
5845;SDS011;2949;50.778;7.094;2023-07-24T02:42:07;2.93;;;2.50;;
5845;SDS011;2949;50.778;7.094;2023-07-24T02:44:35;6.00;;;2.40;;
5845;SDS011;2949;50.778;7.094;2023-07-24T02:47:01;3.50;;;2.50;;
5845;SDS011;2949;50.778;7.094;2023-07-24T02:49:27;8.30;;;4.23;;
5845;SDS011;2949;50.778;7.094;2023-07-24T02:51:53;4.30;;;2.73;;
5845;SDS011;2949;50.778;7.094;2023-07-24T02:54:19;3.30;;;2.93;;
5845;SDS011;2949;50.778;7.094;2023-07-24T02:56:44;5.90;;;2.93;;
5845;SDS011;2949;50.778;7.094;2023-07-24T02:59:10;3.20;;;2.90;;
5845;SDS011;2949;50.778;7.094;2023-07-24T03:01:35;3.40;;;3.10;;
5845;SDS011;2949;50.778;7.094;2023-07-24T03:04:01;2.87;;;2.67;;
5845;SDS011;2949;50.778;7.094;2023-07-24T03:06:27;3.40;;;2.50;;
5845;SDS011;2949;50.778;7.094;2023-07-24T03:08:52;3.70;;;2.90;;
5845;SDS011;2949;50.778;7.094;2023-07-24T03:11:18;6.00;;;3.40;;
5845;SDS011;2949;50.778;7.094;2023-07-24T03:13:43;7.23;;;3.50;;
5845;SDS011;2949;50.778;7.094;2023-07-24T03:16:09;4.03;;;2.60;;
5845;SDS011;2949;50.778;7.094;2023-07-24T03:18:35;4.50;;;2.87;;
5845;SDS011;2949;50.778;7.094;2023-07-24T03:21:00;2.80;;;2.60;;
5845;SDS011;2949;50.778;7.094;2023-07-24T03:23:26;4.30;;;3.30;;
5845;SDS011;2949;50.778;7.094;2023-07-24T03:25:52;3.30;;;2.93;;
5845;SDS011;2949;50.778;7.094;2023-07-24T03:28:17;6.93;;;3.60;;
5845;SDS011;2949;50.778;7.094;2023-07-24T03:30:43;3.60;;;3.20;;
5845;SDS011;2949;50.778;7.094;2023-07-24T03:33:08;4.00;;;2.97;;
5845;SDS011;2949;50.778;7.094;2023-07-24T03:35:34;4.00;;;3.43;;
5845;SDS011;2949;50.778;7.094;2023-07-24T03:37:59;4.43;;;3.00;;
5845;SDS011;2949;50.778;7.094;2023-07-24T03:40:25;5.50;;;2.70;;
5845;SDS011;2949;50.778;7.094;2023-07-24T03:42:51;3.40;;;3.10;;
5845;SDS011;2949;50.778;7.094;2023-07-24T03:45:16;5.83;;;2.57;;
5845;SDS011;2949;50.778;7.094;2023-07-24T03:47:45;5.13;;;3.40;;
5845;SDS011;2949;50.778;7.094;2023-07-24T03:50:11;3.47;;;3.13;;
5845;SDS011;2949;50.778;7.094;2023-07-24T03:52:37;3.00;;;2.73;;
5845;SDS011;2949;50.778;7.094;2023-07-24T03:55:03;2.90;;;2.70;;
5845;SDS011;2949;50.778;7.094;2023-07-24T03:57:29;6.50;;;3.40;;
5845;SDS011;2949;50.778;7.094;2023-07-24T03:59:54;5.30;;;2.70;;
5845;SDS011;2949;50.778;7.094;2023-07-24T04:02:20;7.23;;;3.17;;
5845;SDS011;2949;50.778;7.094;2023-07-24T04:04:45;6.73;;;3.60;;
5845;SDS011;2949;50.778;7.094;2023-07-24T04:07:12;5.63;;;3.27;;
5845;SDS011;2949;50.778;7.094;2023-07-24T04:09:37;5.00;;;3.20;;
5845;SDS011;2949;50.778;7.094;2023-07-24T04:12:03;3.30;;;3.00;;
5845;SDS011;2949;50.778;7.094;2023-07-24T04:14:29;3.20;;;3.00;;
5845;SDS011;2949;50.778;7.094;2023-07-24T04:16:55;3.67;;;3.37;;
5845;SDS011;2949;50.778;7.094;2023-07-24T04:19:20;4.63;;;3.50;;
5845;SDS011;2949;50.778;7.094;2023-07-24T04:21:46;4.70;;;3.30;;
5845;SDS011;2949;50.778;7.094;2023-07-24T04:24:11;4.00;;;3.37;;
5845;SDS011;2949;50.778;7.094;2023-07-24T04:26:37;4.20;;;3.80;;
5845;SDS011;2949;50.778;7.094;2023-07-24T04:29:04;3.93;;;2.70;;
5845;SDS011;2949;50.778;7.094;2023-07-24T04:31:30;5.87;;;3.37;;
5845;SDS011;2949;50.778;7.094;2023-07-24T04:33:55;6.93;;;3.70;;
5845;SDS011;2949;50.778;7.094;2023-07-24T04:36:21;6.83;;;3.50;;
5845;SDS011;2949;50.778;7.094;2023-07-24T04:38:46;5.47;;;3.13;;
5845;SDS011;2949;50.778;7.094;2023-07-24T04:41:12;3.87;;;3.47;;
5845;SDS011;2949;50.778;7.094;2023-07-24T04:43:37;5.37;;;3.80;;
5845;SDS011;2949;50.778;7.094;2023-07-24T04:46:03;3.70;;;3.40;;
5845;SDS011;2949;50.778;7.094;2023-07-24T04:48:28;4.63;;;2.97;;
5845;SDS011;2949;50.778;7.094;2023-07-24T04:50:54;4.30;;;3.10;;
5845;SDS011;2949;50.778;7.094;2023-07-24T04:53:20;3.10;;;2.70;;
5845;SDS011;2949;50.778;7.094;2023-07-24T04:55:46;4.87;;;4.03;;
5845;SDS011;2949;50.778;7.094;2023-07-24T04:58:12;6.13;;;3.77;;
5845;SDS011;2949;50.778;7.094;2023-07-24T05:00:37;4.70;;;3.40;;
5845;SDS011;2949;50.778;7.094;2023-07-24T05:03:03;3.43;;;3.13;;
5845;SDS011;2949;50.778;7.094;2023-07-24T05:05:29;6.70;;;3.37;;
5845;SDS011;2949;50.778;7.094;2023-07-24T05:07:56;3.43;;;3.03;;
5845;SDS011;2949;50.778;7.094;2023-07-24T05:10:22;6.80;;;3.53;;
5845;SDS011;2949;50.778;7.094;2023-07-24T05:12:47;6.33;;;3.50;;
5845;SDS011;2949;50.778;7.094;2023-07-24T05:15:13;5.13;;;3.13;;
5845;SDS011;2949;50.778;7.094;2023-07-24T05:17:41;6.10;;;2.80;;
5845;SDS011;2949;50.778;7.094;2023-07-24T05:20:08;6.43;;;2.80;;
5845;SDS011;2949;50.778;7.094;2023-07-24T05:22:34;7.27;;;3.63;;
5845;SDS011;2949;50.778;7.094;2023-07-24T05:24:59;4.10;;;3.00;;
5845;SDS011;2949;50.778;7.094;2023-07-24T05:27:25;5.20;;;3.10;;
5845;SDS011;2949;50.778;7.094;2023-07-24T05:29:54;8.70;;;3.40;;
5845;SDS011;2949;50.778;7.094;2023-07-24T05:32:20;10.83;;;3.30;;
5845;SDS011;2949;50.778;7.094;2023-07-24T05:34:46;6.30;;;2.70;;
5845;SDS011;2949;50.778;7.094;2023-07-24T05:37:11;4.10;;;2.63;;
5845;SDS011;2949;50.778;7.094;2023-07-24T05:39:37;6.27;;;3.67;;
5845;SDS011;2949;50.778;7.094;2023-07-24T05:42:02;5.37;;;3.67;;
5845;SDS011;2949;50.778;7.094;2023-07-24T05:44:28;4.17;;;3.13;;
5845;SDS011;2949;50.778;7.094;2023-07-24T05:46:53;8.30;;;3.23;;
5845;SDS011;2949;50.778;7.094;2023-07-24T05:49:19;3.63;;;3.33;;
5845;SDS011;2949;50.778;7.094;2023-07-24T05:51:44;3.93;;;3.07;;
5845;SDS011;2949;50.778;7.094;2023-07-24T05:54:10;3.73;;;2.63;;
5845;SDS011;2949;50.778;7.094;2023-07-24T05:56:35;5.10;;;3.20;;
5845;SDS011;2949;50.778;7.094;2023-07-24T05:59:01;4.70;;;3.83;;
5845;SDS011;2949;50.778;7.094;2023-07-24T06:01:26;3.40;;;2.87;;
5845;SDS011;2949;50.778;7.094;2023-07-24T06:03:52;6.40;;;3.33;;
5845;SDS011;2949;50.778;7.094;2023-07-24T06:06:17;4.20;;;3.20;;
5845;SDS011;2949;50.778;7.094;2023-07-24T06:08:44;4.23;;;3.00;;
5845;SDS011;2949;50.778;7.094;2023-07-24T06:11:09;4.60;;;3.27;;
5845;SDS011;2949;50.778;7.094;2023-07-24T06:13:35;6.33;;;3.70;;
5845;SDS011;2949;50.778;7.094;2023-07-24T06:16:01;5.53;;;3.83;;
5845;SDS011;2949;50.778;7.094;2023-07-24T06:18:26;6.77;;;2.90;;
5845;SDS011;2949;50.778;7.094;2023-07-24T06:20:52;5.43;;;3.20;;
5845;SDS011;2949;50.778;7.094;2023-07-24T06:23:18;4.60;;;3.50;;
5845;SDS011;2949;50.778;7.094;2023-07-24T06:25:44;5.03;;;3.53;;
5845;SDS011;2949;50.778;7.094;2023-07-24T06:28:09;7.07;;;2.83;;
5845;SDS011;2949;50.778;7.094;2023-07-24T06:30:35;5.63;;;3.13;;
5845;SDS011;2949;50.778;7.094;2023-07-24T06:33:00;6.60;;;3.37;;
5845;SDS011;2949;50.778;7.094;2023-07-24T06:35:26;5.57;;;3.40;;
5845;SDS011;2949;50.778;7.094;2023-07-24T06:37:51;5.57;;;3.50;;
5845;SDS011;2949;50.778;7.094;2023-07-24T06:40:17;3.10;;;2.80;;
5845;SDS011;2949;50.778;7.094;2023-07-24T06:42:42;5.13;;;3.23;;
5845;SDS011;2949;50.778;7.094;2023-07-24T06:45:08;5.70;;;3.63;;
5845;SDS011;2949;50.778;7.094;2023-07-24T06:47:33;4.30;;;3.20;;
5845;SDS011;2949;50.778;7.094;2023-07-24T06:49:59;3.73;;;3.20;;
5845;SDS011;2949;50.778;7.094;2023-07-24T06:52:24;8.93;;;3.47;;
5845;SDS011;2949;50.778;7.094;2023-07-24T06:54:50;3.60;;;3.13;;
5845;SDS011;2949;50.778;7.094;2023-07-24T06:57:15;4.73;;;3.67;;
5845;SDS011;2949;50.778;7.094;2023-07-24T06:59:41;5.37;;;3.20;;
5845;SDS011;2949;50.778;7.094;2023-07-24T07:02:06;5.60;;;3.40;;
5845;SDS011;2949;50.778;7.094;2023-07-24T07:04:32;4.43;;;3.20;;
5845;SDS011;2949;50.778;7.094;2023-07-24T07:06:57;6.43;;;3.10;;
5845;SDS011;2949;50.778;7.094;2023-07-24T07:09:23;4.37;;;3.10;;
5845;SDS011;2949;50.778;7.094;2023-07-24T07:11:48;4.10;;;2.63;;
5845;SDS011;2949;50.778;7.094;2023-07-24T07:14:14;4.87;;;2.83;;
5845;SDS011;2949;50.778;7.094;2023-07-24T07:16:40;5.60;;;3.50;;
5845;SDS011;2949;50.778;7.094;2023-07-24T07:19:06;3.50;;;3.20;;
5845;SDS011;2949;50.778;7.094;2023-07-24T07:21:34;7.43;;;3.13;;
5845;SDS011;2949;50.778;7.094;2023-07-24T07:23:59;4.13;;;2.53;;
5845;SDS011;2949;50.778;7.094;2023-07-24T07:26:25;7.50;;;3.17;;
5845;SDS011;2949;50.778;7.094;2023-07-24T07:28:51;6.80;;;2.60;;
5845;SDS011;2949;50.778;7.094;2023-07-24T07:31:16;2.37;;;2.17;;
5845;SDS011;2949;50.778;7.094;2023-07-24T07:33:42;4.40;;;2.73;;
5845;SDS011;2949;50.778;7.094;2023-07-24T07:36:07;2.80;;;2.60;;
5845;SDS011;2949;50.778;7.094;2023-07-24T07:38:33;4.63;;;2.57;;
5845;SDS011;2949;50.778;7.094;2023-07-24T07:40:58;4.23;;;3.20;;
5845;SDS011;2949;50.778;7.094;2023-07-24T07:43:28;4.07;;;2.70;;
5845;SDS011;2949;50.778;7.094;2023-07-24T07:45:54;4.60;;;3.00;;
5845;SDS011;2949;50.778;7.094;2023-07-24T07:48:21;6.60;;;3.23;;
5845;SDS011;2949;50.778;7.094;2023-07-24T07:50:50;3.80;;;2.50;;
5845;SDS011;2949;50.778;7.094;2023-07-24T07:53:18;4.53;;;3.10;;
5845;SDS011;2949;50.778;7.094;2023-07-24T07:55:44;4.73;;;2.70;;
5845;SDS011;2949;50.778;7.094;2023-07-24T07:58:09;3.30;;;3.00;;
5845;SDS011;2949;50.778;7.094;2023-07-24T08:00:35;5.73;;;3.20;;
5845;SDS011;2949;50.778;7.094;2023-07-24T08:03:00;6.70;;;3.40;;
5845;SDS011;2949;50.778;7.094;2023-07-24T08:05:26;4.30;;;2.80;;
5845;SDS011;2949;50.778;7.094;2023-07-24T08:07:52;4.47;;;3.13;;
5845;SDS011;2949;50.778;7.094;2023-07-24T08:10:18;5.50;;;4.07;;
5845;SDS011;2949;50.778;7.094;2023-07-24T08:12:43;7.50;;;2.70;;
5845;SDS011;2949;50.778;7.094;2023-07-24T08:15:09;4.20;;;3.13;;
5845;SDS011;2949;50.778;7.094;2023-07-24T08:17:36;3.67;;;3.37;;
5845;SDS011;2949;50.778;7.094;2023-07-24T08:20:02;3.27;;;3.03;;
5845;SDS011;2949;50.778;7.094;2023-07-24T08:22:28;7.50;;;2.87;;
5845;SDS011;2949;50.778;7.094;2023-07-24T08:24:53;3.20;;;2.63;;
5845;SDS011;2949;50.778;7.094;2023-07-24T08:27:19;7.70;;;3.10;;
5845;SDS011;2949;50.778;7.094;2023-07-24T08:29:45;3.63;;;3.27;;
5845;SDS011;2949;50.778;7.094;2023-07-24T08:32:10;7.93;;;3.70;;
5845;SDS011;2949;50.778;7.094;2023-07-24T08:34:36;3.50;;;2.93;;
5845;SDS011;2949;50.778;7.094;2023-07-24T08:37:01;3.63;;;3.20;;
5845;SDS011;2949;50.778;7.094;2023-07-24T08:39:27;4.10;;;2.53;;
5845;SDS011;2949;50.778;7.094;2023-07-24T08:41:52;4.30;;;3.00;;
5845;SDS011;2949;50.778;7.094;2023-07-24T08:44:18;3.27;;;2.77;;
5845;SDS011;2949;50.778;7.094;2023-07-24T08:46:49;3.77;;;2.70;;
5845;SDS011;2949;50.778;7.094;2023-07-24T08:49:15;2.77;;;2.57;;
5845;SDS011;2949;50.778;7.094;2023-07-24T08:51:41;6.73;;;2.83;;
5845;SDS011;2949;50.778;7.094;2023-07-24T08:54:07;5.03;;;2.63;;
5845;SDS011;2949;50.778;7.094;2023-07-24T08:56:33;3.23;;;2.20;;
5845;SDS011;2949;50.778;7.094;2023-07-24T08:59:01;2.50;;;2.30;;
5845;SDS011;2949;50.778;7.094;2023-07-24T09:01:27;2.72;;;2.53;;
5845;SDS011;2949;50.778;7.094;2023-07-24T09:03:53;4.60;;;2.90;;
5845;SDS011;2949;50.778;7.094;2023-07-24T09:06:19;2.67;;;2.47;;
5845;SDS011;2949;50.778;7.094;2023-07-24T09:08:45;3.10;;;2.80;;
5845;SDS011;2949;50.778;7.094;2023-07-24T09:11:13;4.40;;;2.57;;
5845;SDS011;2949;50.778;7.094;2023-07-24T09:13:40;2.87;;;2.63;;
5845;SDS011;2949;50.778;7.094;2023-07-24T09:16:07;3.17;;;2.50;;
5845;SDS011;2949;50.778;7.094;2023-07-24T09:18:39;2.67;;;1.90;;
5845;SDS011;2949;50.778;7.094;2023-07-24T09:21:06;2.63;;;2.43;;
5845;SDS011;2949;50.778;7.094;2023-07-24T09:23:32;2.47;;;2.27;;
5845;SDS011;2949;50.778;7.094;2023-07-24T09:25:58;2.87;;;2.10;;
5845;SDS011;2949;50.778;7.094;2023-07-24T09:28:24;2.37;;;2.20;;
5845;SDS011;2949;50.778;7.094;2023-07-24T09:30:53;3.17;;;2.53;;
5845;SDS011;2949;50.778;7.094;2023-07-24T09:33:20;3.07;;;2.27;;
5845;SDS011;2949;50.778;7.094;2023-07-24T09:35:56;2.40;;;2.20;;
5845;SDS011;2949;50.778;7.094;2023-07-24T09:38:23;2.50;;;2.10;;
5845;SDS011;2949;50.778;7.094;2023-07-24T09:40:48;1.87;;;1.70;;
5845;SDS011;2949;50.778;7.094;2023-07-24T09:43:24;3.47;;;2.53;;
5845;SDS011;2949;50.778;7.094;2023-07-24T09:45:50;2.60;;;2.20;;
5845;SDS011;2949;50.778;7.094;2023-07-24T09:48:18;2.20;;;2.00;;
5845;SDS011;2949;50.778;7.094;2023-07-24T09:50:45;2.23;;;2.03;;
5845;SDS011;2949;50.778;7.094;2023-07-24T09:53:17;3.17;;;2.10;;
5845;SDS011;2949;50.778;7.094;2023-07-24T09:55:47;2.40;;;2.20;;
5845;SDS011;2949;50.778;7.094;2023-07-24T09:58:15;4.40;;;2.30;;
5845;SDS011;2949;50.778;7.094;2023-07-24T10:00:42;3.00;;;2.30;;
5845;SDS011;2949;50.778;7.094;2023-07-24T10:03:08;2.50;;;2.07;;
5845;SDS011;2949;50.778;7.094;2023-07-24T10:05:35;3.90;;;2.27;;
5845;SDS011;2949;50.778;7.094;2023-07-24T10:08:01;2.80;;;1.87;;
5845;SDS011;2949;50.778;7.094;2023-07-24T10:10:27;2.57;;;2.30;;
5845;SDS011;2949;50.778;7.094;2023-07-24T10:12:57;3.83;;;2.57;;
5845;SDS011;2949;50.778;7.094;2023-07-24T10:15:23;2.53;;;2.33;;
5845;SDS011;2949;50.778;7.094;2023-07-24T10:17:49;3.00;;;1.97;;
5845;SDS011;2949;50.778;7.094;2023-07-24T10:20:16;2.10;;;1.90;;
5845;SDS011;2949;50.778;7.094;2023-07-24T10:22:43;3.53;;;2.20;;
5845;SDS011;2949;50.778;7.094;2023-07-24T10:25:09;3.23;;;1.70;;
5845;SDS011;2949;50.778;7.094;2023-07-24T10:27:36;2.60;;;2.40;;
5845;SDS011;2949;50.778;7.094;2023-07-24T10:30:02;2.03;;;1.83;;
5845;SDS011;2949;50.778;7.094;2023-07-24T10:32:29;2.50;;;2.30;;
5845;SDS011;2949;50.778;7.094;2023-07-24T10:34:55;2.20;;;1.60;;
5845;SDS011;2949;50.778;7.094;2023-07-24T10:37:30;2.33;;;2.23;;
5845;SDS011;2949;50.778;7.094;2023-07-24T10:39:56;1.87;;;1.77;;
5845;SDS011;2949;50.778;7.094;2023-07-24T10:42:22;2.33;;;2.13;;
5845;SDS011;2949;50.778;7.094;2023-07-24T10:44:48;2.83;;;2.40;;
5845;SDS011;2949;50.778;7.094;2023-07-24T10:47:14;2.67;;;1.70;;
5845;SDS011;2949;50.778;7.094;2023-07-24T10:49:42;2.20;;;2.10;;
5845;SDS011;2949;50.778;7.094;2023-07-24T10:52:13;2.53;;;2.33;;
5845;SDS011;2949;50.778;7.094;2023-07-24T10:54:39;2.40;;;2.30;;
5845;SDS011;2949;50.778;7.094;2023-07-24T10:57:05;2.77;;;2.40;;
5845;SDS011;2949;50.778;7.094;2023-07-24T10:59:38;2.93;;;2.63;;
5845;SDS011;2949;50.778;7.094;2023-07-24T11:02:04;2.50;;;2.00;;
5845;SDS011;2949;50.778;7.094;2023-07-24T11:04:30;2.33;;;2.10;;
5845;SDS011;2949;50.778;7.094;2023-07-24T11:06:56;4.40;;;2.97;;
5845;SDS011;2949;50.778;7.094;2023-07-24T11:09:22;2.60;;;2.30;;
5845;SDS011;2949;50.778;7.094;2023-07-24T11:11:59;2.20;;;2.03;;
5845;SDS011;2949;50.778;7.094;2023-07-24T11:14:25;1.90;;;1.80;;
5845;SDS011;2949;50.778;7.094;2023-07-24T11:16:51;4.37;;;2.63;;
5845;SDS011;2949;50.778;7.094;2023-07-24T11:19:24;3.53;;;2.10;;
5845;SDS011;2949;50.778;7.094;2023-07-24T11:21:50;3.10;;;2.37;;
5845;SDS011;2949;50.778;7.094;2023-07-24T11:24:17;6.80;;;2.10;;
5845;SDS011;2949;50.778;7.094;2023-07-24T11:26:43;2.00;;;1.90;;
5845;SDS011;2949;50.778;7.094;2023-07-24T11:29:12;2.67;;;2.47;;
5845;SDS011;2949;50.778;7.094;2023-07-24T11:31:38;40.97;;;5.20;;
5845;SDS011;2949;50.778;7.094;2023-07-24T11:34:04;9.50;;;2.80;;
5845;SDS011;2949;50.778;7.094;2023-07-24T11:36:30;11.90;;;2.50;;
5845;SDS011;2949;50.778;7.094;2023-07-24T11:38:57;3.07;;;2.10;;
5845;SDS011;2949;50.778;7.094;2023-07-24T11:41:23;2.10;;;1.90;;
5845;SDS011;2949;50.778;7.094;2023-07-24T11:43:49;5.33;;;2.57;;
5845;SDS011;2949;50.778;7.094;2023-07-24T11:46:25;2.23;;;2.10;;
5845;SDS011;2949;50.778;7.094;2023-07-24T11:48:51;4.20;;;2.37;;
5845;SDS011;2949;50.778;7.094;2023-07-24T11:51:18;1.80;;;1.70;;
5845;SDS011;2949;50.778;7.094;2023-07-24T11:53:44;2.67;;;2.47;;
5845;SDS011;2949;50.778;7.094;2023-07-24T11:56:14;3.67;;;2.10;;
5845;SDS011;2949;50.778;7.094;2023-07-24T11:58:41;3.27;;;2.20;;
5845;SDS011;2949;50.778;7.094;2023-07-24T12:01:06;5.53;;;2.43;;
5845;SDS011;2949;50.778;7.094;2023-07-24T12:03:32;3.17;;;2.10;;
5845;SDS011;2949;50.778;7.094;2023-07-24T12:05:59;2.70;;;2.20;;
5845;SDS011;2949;50.778;7.094;2023-07-24T12:08:34;2.30;;;2.10;;
5845;SDS011;2949;50.778;7.094;2023-07-24T12:11:01;4.80;;;2.30;;
5845;SDS011;2949;50.778;7.094;2023-07-24T12:13:27;2.53;;;2.13;;
5845;SDS011;2949;50.778;7.094;2023-07-24T12:15:57;2.23;;;2.03;;
5845;SDS011;2949;50.778;7.094;2023-07-24T12:18:23;2.83;;;1.40;;
5845;SDS011;2949;50.778;7.094;2023-07-24T12:20:48;2.57;;;1.80;;
5845;SDS011;2949;50.778;7.094;2023-07-24T12:23:14;3.90;;;1.93;;
5845;SDS011;2949;50.778;7.094;2023-07-24T12:25:41;2.83;;;1.73;;
5845;SDS011;2949;50.778;7.094;2023-07-24T12:28:07;1.80;;;1.50;;
5845;SDS011;2949;50.778;7.094;2023-07-24T12:30:34;3.00;;;1.80;;
5845;SDS011;2949;50.778;7.094;2023-07-24T12:32:59;6.73;;;1.50;;
5845;SDS011;2949;50.778;7.094;2023-07-24T12:35:25;1.77;;;1.37;;
5845;SDS011;2949;50.778;7.094;2023-07-24T12:37:51;2.83;;;1.43;;
5845;SDS011;2949;50.778;7.094;2023-07-24T12:40:17;1.50;;;1.00;;
5845;SDS011;2949;50.778;7.094;2023-07-24T12:42:43;1.50;;;1.40;;
5845;SDS011;2949;50.778;7.094;2023-07-24T12:45:09;2.00;;;1.37;;
5845;SDS011;2949;50.778;7.094;2023-07-24T12:47:35;3.43;;;1.60;;
5845;SDS011;2949;50.778;7.094;2023-07-24T12:50:01;2.90;;;1.70;;
5845;SDS011;2949;50.778;7.094;2023-07-24T12:52:28;6.53;;;1.33;;
5845;SDS011;2949;50.778;7.094;2023-07-24T12:54:55;2.60;;;1.07;;
5845;SDS011;2949;50.778;7.094;2023-07-24T12:57:21;3.00;;;1.63;;
5845;SDS011;2949;50.778;7.094;2023-07-24T12:59:47;1.53;;;1.30;;
5845;SDS011;2949;50.778;7.094;2023-07-24T13:02:13;1.10;;;1.00;;
5845;SDS011;2949;50.778;7.094;2023-07-24T13:04:39;0.90;;;0.90;;
5845;SDS011;2949;50.778;7.094;2023-07-24T13:07:05;1.40;;;1.17;;
5845;SDS011;2949;50.778;7.094;2023-07-24T13:09:31;1.53;;;1.43;;
5845;SDS011;2949;50.778;7.094;2023-07-24T13:11:57;4.30;;;2.00;;
5845;SDS011;2949;50.778;7.094;2023-07-24T13:14:23;3.30;;;1.50;;
5845;SDS011;2949;50.778;7.094;2023-07-24T13:16:49;1.63;;;1.10;;
5845;SDS011;2949;50.778;7.094;2023-07-24T13:19:15;4.87;;;1.10;;
5845;SDS011;2949;50.778;7.094;2023-07-24T13:21:41;1.97;;;0.90;;
5845;SDS011;2949;50.778;7.094;2023-07-24T13:24:08;2.70;;;0.87;;
5845;SDS011;2949;50.778;7.094;2023-07-24T13:26:34;4.63;;;1.70;;
5845;SDS011;2949;50.778;7.094;2023-07-24T13:29:00;2.70;;;1.03;;
5845;SDS011;2949;50.778;7.094;2023-07-24T13:31:26;0.80;;;0.70;;
5845;SDS011;2949;50.778;7.094;2023-07-24T13:33:53;0.93;;;0.93;;
5845;SDS011;2949;50.778;7.094;2023-07-24T13:36:19;2.07;;;0.80;;
5845;SDS011;2949;50.778;7.094;2023-07-24T13:38:45;2.87;;;0.70;;
5845;SDS011;2949;50.778;7.094;2023-07-24T13:41:11;2.17;;;1.97;;
5845;SDS011;2949;50.778;7.094;2023-07-24T13:43:37;2.00;;;1.37;;
5845;SDS011;2949;50.778;7.094;2023-07-24T13:46:03;1.30;;;1.17;;
5845;SDS011;2949;50.778;7.094;2023-07-24T13:48:30;1.13;;;1.03;;
5845;SDS011;2949;50.778;7.094;2023-07-24T13:50:55;1.67;;;1.40;;
5845;SDS011;2949;50.778;7.094;2023-07-24T13:53:21;4.13;;;1.80;;
5845;SDS011;2949;50.778;7.094;2023-07-24T13:55:48;2.97;;;2.10;;
5845;SDS011;2949;50.778;7.094;2023-07-24T13:58:14;3.40;;;1.60;;
5845;SDS011;2949;50.778;7.094;2023-07-24T14:00:40;2.87;;;1.83;;
5845;SDS011;2949;50.778;7.094;2023-07-24T14:03:06;1.33;;;1.23;;
5845;SDS011;2949;50.778;7.094;2023-07-24T14:05:32;3.50;;;1.73;;
5845;SDS011;2949;50.778;7.094;2023-07-24T14:07:58;5.53;;;2.10;;
5845;SDS011;2949;50.778;7.094;2023-07-24T14:10:24;4.20;;;1.40;;
5845;SDS011;2949;50.778;7.094;2023-07-24T14:12:50;2.17;;;1.40;;
5845;SDS011;2949;50.778;7.094;2023-07-24T14:15:16;2.33;;;1.30;;
5845;SDS011;2949;50.778;7.094;2023-07-24T14:17:42;2.00;;;1.80;;
5845;SDS011;2949;50.778;7.094;2023-07-24T14:20:08;16.13;;;3.00;;
5845;SDS011;2949;50.778;7.094;2023-07-24T14:22:34;0.93;;;0.40;;
5845;SDS011;2949;50.778;7.094;2023-07-24T14:25:00;0.30;;;0.20;;
5845;SDS011;2949;50.778;7.094;2023-07-24T14:27:26;0.47;;;0.47;;
5845;SDS011;2949;50.778;7.094;2023-07-24T14:29:52;1.80;;;0.40;;
5845;SDS011;2949;50.778;7.094;2023-07-24T14:32:18;0.30;;;0.30;;
5845;SDS011;2949;50.778;7.094;2023-07-24T14:34:47;1.23;;;0.70;;
5845;SDS011;2949;50.778;7.094;2023-07-24T14:37:13;0.30;;;0.30;;
5845;SDS011;2949;50.778;7.094;2023-07-24T14:39:39;0.60;;;0.30;;
5845;SDS011;2949;50.778;7.094;2023-07-24T14:42:05;0.30;;;0.30;;
5845;SDS011;2949;50.778;7.094;2023-07-24T14:44:31;0.70;;;0.40;;
5845;SDS011;2949;50.778;7.094;2023-07-24T14:46:57;0.50;;;0.27;;
5845;SDS011;2949;50.778;7.094;2023-07-24T14:49:23;0.40;;;0.40;;
5845;SDS011;2949;50.778;7.094;2023-07-24T14:51:48;0.40;;;0.40;;
5845;SDS011;2949;50.778;7.094;2023-07-24T14:54:14;0.40;;;0.30;;
5845;SDS011;2949;50.778;7.094;2023-07-24T14:56:40;1.97;;;0.50;;
5845;SDS011;2949;50.778;7.094;2023-07-24T14:59:06;1.03;;;1.03;;
5845;SDS011;2949;50.778;7.094;2023-07-24T15:01:32;0.90;;;0.90;;
5845;SDS011;2949;50.778;7.094;2023-07-24T15:03:58;1.20;;;1.20;;
5845;SDS011;2949;50.778;7.094;2023-07-24T15:06:24;2.33;;;1.10;;
5845;SDS011;2949;50.778;7.094;2023-07-24T15:08:50;3.00;;;1.30;;
5845;SDS011;2949;50.778;7.094;2023-07-24T15:11:24;1.87;;;1.03;;